createdAt,value
2017-11-18T00:01:36.608Z,8.50
2017-11-18T00:04:05.853Z,7.57
2017-11-18T00:06:34.197Z,7.80
2017-11-18T00:09:02.548Z,7.65
2017-11-18T00:11:30.900Z,7.95
2017-11-18T00:13:59.344Z,10.02
2017-11-18T00:16:27.705Z,7.95
2017-11-18T00:18:56.052Z,8.65
2017-11-18T00:21:24.401Z,6.50
2017-11-18T00:23:52.740Z,7.57
2017-11-18T00:26:21.118Z,7.78
2017-11-18T00:28:49.453Z,7.07
2017-11-18T00:31:17.800Z,6.75
2017-11-18T00:33:46.180Z,8.65
2017-11-18T00:36:14.558Z,7.43
2017-11-18T00:38:42.933Z,7.30
2017-11-18T00:41:11.276Z,6.97
2017-11-18T00:43:39.626Z,7.35
2017-11-18T00:46:08.020Z,6.07
2017-11-18T00:48:36.374Z,7.00
2017-11-18T00:51:04.729Z,7.87
2017-11-18T00:53:33.079Z,7.80
2017-11-18T00:56:01.425Z,7.90
2017-11-18T00:58:29.812Z,10.63
2017-11-18T01:00:58.158Z,7.53
2017-11-18T01:03:26.505Z,8.23
2017-11-18T01:05:54.849Z,8.20
2017-11-18T01:08:23.203Z,9.13
2017-11-18T01:10:51.597Z,7.65
2017-11-18T01:13:19.947Z,9.25
2017-11-18T01:15:48.296Z,9.43
2017-11-18T01:18:16.644Z,8.95
2017-11-18T01:20:45.055Z,8.40
2017-11-18T01:23:13.382Z,8.43
2017-11-18T01:25:41.736Z,8.63
2017-11-18T01:28:10.114Z,10.20
2017-11-18T01:30:38.479Z,9.38
2017-11-18T01:33:06.820Z,9.85
2017-11-18T01:35:35.171Z,9.77
2017-11-18T01:38:03.526Z,10.10
2017-11-18T01:40:31.921Z,11.18
2017-11-18T01:43:00.280Z,10.10
2017-11-18T01:45:28.652Z,10.85
2017-11-18T01:47:57.922Z,9.90
2017-11-18T01:50:26.300Z,9.60
2017-11-18T01:52:54.677Z,9.38
2017-11-18T01:55:23.076Z,9.75
2017-11-18T01:57:51.432Z,9.55
2017-11-18T02:00:19.785Z,9.18
2017-11-18T02:02:48.136Z,8.98
2017-11-18T02:05:16.588Z,8.77
2017-11-18T02:07:44.951Z,8.93
2017-11-18T02:10:13.292Z,8.57
2017-11-18T02:12:41.648Z,7.57
2017-11-18T02:15:10.011Z,9.00
2017-11-18T02:17:38.420Z,8.60
2017-11-18T02:20:06.776Z,9.55
2017-11-18T02:22:35.128Z,10.10
2017-11-18T02:25:03.595Z,8.98
2017-11-18T02:27:31.948Z,9.25
2017-11-18T02:30:00.327Z,9.30
2017-11-18T02:32:28.681Z,9.52
2017-11-18T02:34:57.058Z,10.70
2017-11-18T02:37:25.399Z,8.20
2017-11-18T02:39:53.764Z,10.07
2017-11-18T02:42:22.148Z,8.20
2017-11-18T02:44:50.514Z,9.30
2017-11-18T02:47:18.856Z,8.25
2017-11-18T02:49:47.209Z,8.95
2017-11-18T02:52:15.561Z,9.02
2017-11-18T02:54:43.958Z,8.50
2017-11-18T02:57:12.354Z,10.35
2017-11-18T02:59:40.701Z,7.95
2017-11-18T03:02:09.062Z,9.40
2017-11-18T03:04:37.416Z,8.98
2017-11-18T03:07:05.888Z,8.75
2017-11-18T03:09:34.275Z,10.07
2017-11-18T03:12:02.638Z,7.25
2017-11-18T03:14:31.100Z,9.40
2017-11-18T03:16:59.454Z,9.05
2017-11-18T03:19:27.850Z,7.20
2017-11-18T03:21:56.203Z,6.65
2017-11-18T03:24:24.539Z,6.65
2017-11-18T03:26:52.962Z,5.95
2017-11-18T03:29:21.400Z,7.00
2017-11-18T03:31:49.749Z,6.93
2017-11-18T03:34:18.097Z,6.50
2017-11-18T03:36:46.455Z,6.68
2017-11-18T03:39:14.864Z,5.75
2017-11-18T03:41:43.495Z,5.82
2017-11-18T03:44:11.852Z,6.85
2017-11-18T03:46:40.226Z,7.10
2017-11-18T03:49:08.601Z,6.72
2017-11-18T03:51:36.965Z,7.12
2017-11-18T03:54:05.364Z,7.35
2017-11-18T03:56:33.713Z,5.80
2017-11-18T03:59:02.068Z,5.93
2017-11-18T04:01:30.448Z,5.82
2017-11-18T04:03:58.815Z,5.70
2017-11-18T04:06:27.205Z,6.70
2017-11-18T04:08:55.690Z,6.10
2017-11-18T04:11:24.037Z,6.00
2017-11-18T04:13:52.385Z,6.78
2017-11-18T04:16:20.734Z,4.93
2017-11-18T04:18:49.112Z,5.30
2017-11-18T04:21:17.462Z,5.90
2017-11-18T04:23:45.808Z,5.32
2017-11-18T04:26:14.147Z,5.70
2017-11-18T04:28:42.496Z,6.07
2017-11-18T04:31:10.856Z,5.12
2017-11-18T04:33:39.205Z,4.65
2017-11-18T04:38:42.021Z,5.55
2017-11-18T04:41:10.377Z,4.72
2017-11-18T04:43:38.754Z,6.10
2017-11-18T04:46:07.099Z,6.25
2017-11-18T04:48:35.439Z,5.75
2017-11-18T04:51:03.781Z,5.95
2017-11-18T04:53:32.125Z,4.68
2017-11-18T04:56:00.495Z,4.97
2017-11-18T04:58:28.849Z,5.55
2017-11-18T05:00:57.237Z,5.75
2017-11-18T05:03:25.596Z,5.18
2017-11-18T05:05:53.934Z,5.80
2017-11-18T05:08:22.295Z,5.97
2017-11-18T05:10:50.641Z,5.22
2017-11-18T05:13:19.020Z,5.30
2017-11-18T05:15:47.364Z,6.72
2017-11-18T05:18:15.704Z,5.62
2017-11-18T05:20:44.083Z,5.78
2017-11-18T05:23:12.424Z,5.40
2017-11-18T05:25:40.781Z,6.03
2017-11-18T05:28:09.129Z,5.30
2017-11-18T05:30:37.476Z,5.43
2017-11-18T05:33:05.844Z,5.60
2017-11-18T05:35:34.190Z,4.40
2017-11-18T05:38:02.556Z,4.80
2017-11-18T05:40:30.904Z,5.65
2017-11-18T05:42:59.280Z,5.87
2017-11-18T05:45:27.619Z,4.90
2017-11-18T05:47:55.973Z,4.93
2017-11-18T05:50:24.313Z,5.15
2017-11-18T05:52:52.664Z,6.47
2017-11-18T05:55:21.130Z,5.87
2017-11-18T05:57:49.468Z,6.28
2017-11-18T06:00:17.821Z,6.68
2017-11-18T06:02:46.161Z,6.70
2017-11-18T06:05:14.505Z,6.95
2017-11-18T06:07:42.887Z,6.43
2017-11-18T06:10:11.228Z,6.78
2017-11-18T06:12:39.571Z,6.22
2017-11-18T06:15:07.915Z,5.90
2017-11-18T06:17:36.251Z,6.97
2017-11-18T06:20:04.618Z,7.65
2017-11-18T06:22:32.960Z,6.65
2017-11-18T06:25:01.304Z,8.18
2017-11-18T06:27:29.653Z,9.10
2017-11-18T06:29:58.669Z,9.43
2017-11-18T06:32:27.048Z,7.85
2017-11-18T06:34:55.391Z,8.35
2017-11-18T06:37:23.741Z,7.45
2017-11-18T06:39:52.079Z,7.95
2017-11-18T06:42:20.440Z,8.93
2017-11-18T06:44:48.810Z,7.62
2017-11-18T06:47:17.153Z,6.97
2017-11-18T06:49:45.491Z,7.72
2017-11-18T06:52:13.844Z,9.68
2017-11-18T06:54:42.192Z,11.15
2017-11-18T06:57:10.664Z,8.38
2017-11-18T06:59:39.018Z,9.13
2017-11-18T07:02:07.369Z,10.10
2017-11-18T07:04:35.722Z,10.18
2017-11-18T07:07:04.069Z,10.52
2017-11-18T07:09:32.479Z,8.98
2017-11-18T07:12:00.830Z,9.43
2017-11-18T07:14:29.172Z,9.60
2017-11-18T07:16:57.524Z,8.07
2017-11-18T07:19:25.901Z,8.60
2017-11-18T07:21:54.287Z,7.70
2017-11-18T07:24:22.636Z,7.35
2017-11-18T07:26:50.985Z,6.60
2017-11-18T07:29:19.324Z,6.50
2017-11-18T07:31:47.683Z,8.25
2017-11-18T07:34:16.049Z,5.62
2017-11-18T07:36:44.389Z,6.87
2017-11-18T07:39:12.737Z,6.68
2017-11-18T07:41:41.091Z,7.00
2017-11-18T07:44:09.428Z,6.75
2017-11-18T07:46:37.823Z,7.15
2017-11-18T07:49:06.172Z,7.32
2017-11-18T07:51:34.525Z,7.12
2017-11-18T07:54:02.868Z,5.90
2017-11-18T07:56:31.224Z,3.83
2017-11-18T07:58:59.584Z,4.80
2017-11-18T08:01:27.940Z,5.68
2017-11-18T08:03:56.289Z,5.68
2017-11-18T08:06:24.644Z,4.82
2017-11-18T08:08:52.985Z,6.07
2017-11-18T08:11:21.353Z,5.15
2017-11-18T08:13:49.700Z,4.95
2017-11-18T08:16:18.063Z,5.15
2017-11-18T08:18:46.718Z,6.15
2017-11-18T08:21:15.309Z,6.10
2017-11-18T08:23:43.842Z,5.28
2017-11-18T08:26:12.233Z,5.93
2017-11-18T08:28:40.643Z,5.28
2017-11-18T08:31:09.312Z,5.37
2017-11-18T08:33:37.751Z,5.55
2017-11-18T08:36:18.020Z,5.40
2017-11-18T08:38:46.427Z,5.30
2017-11-18T08:41:14.885Z,5.70
2017-11-18T08:43:43.644Z,5.50
2017-11-18T08:46:12.064Z,4.87
2017-11-18T08:48:40.470Z,5.95
2017-11-18T08:51:08.965Z,6.70
2017-11-18T08:53:37.562Z,5.93
2017-11-18T08:56:05.923Z,5.90
2017-11-18T08:58:35.160Z,5.35
2017-11-18T09:01:03.533Z,4.93
2017-11-18T09:03:31.876Z,6.20
2017-11-18T09:06:00.384Z,6.40
2017-11-18T09:08:28.746Z,6.37
2017-11-18T09:10:57.290Z,6.37
2017-11-18T09:13:25.800Z,5.90
2017-11-18T09:15:54.153Z,6.53
2017-11-18T09:18:22.489Z,6.40
2017-11-18T09:20:50.827Z,6.75
2017-11-18T09:23:19.301Z,6.95
2017-11-18T09:25:47.651Z,6.15
2017-11-18T09:28:15.996Z,6.60
2017-11-18T09:30:44.343Z,6.07
2017-11-18T09:33:12.784Z,7.07
2017-11-18T09:35:41.170Z,6.00
2017-11-18T09:38:09.605Z,6.80
2017-11-18T09:40:37.969Z,6.40
2017-11-18T09:43:06.325Z,5.82
2017-11-18T09:45:34.700Z,5.90
2017-11-18T09:48:03.050Z,6.70
2017-11-18T09:50:31.410Z,7.45
2017-11-18T09:52:59.766Z,5.90
2017-11-18T09:55:28.108Z,6.87
2017-11-18T09:57:56.488Z,6.40
2017-11-18T10:00:24.829Z,5.35
2017-11-18T10:02:53.188Z,5.90
2017-11-18T10:05:21.533Z,5.30
2017-11-18T10:07:49.884Z,5.80
2017-11-18T10:10:18.267Z,6.37
2017-11-18T10:12:46.609Z,7.10
2017-11-18T10:15:14.963Z,6.72
2017-11-18T10:17:43.318Z,6.10
2017-11-18T10:20:11.676Z,5.22
2017-11-18T10:22:40.155Z,6.40
2017-11-18T10:25:08.581Z,5.18
2017-11-18T10:27:36.931Z,5.55
2017-11-18T10:30:05.278Z,6.35
2017-11-18T10:32:33.638Z,5.65
2017-11-18T10:35:02.020Z,5.40
2017-11-18T10:37:30.376Z,5.30
2017-11-18T10:39:58.714Z,6.78
2017-11-18T10:42:27.069Z,5.97
2017-11-18T10:44:55.413Z,6.68
2017-11-18T10:47:23.815Z,5.90
2017-11-18T10:49:52.162Z,7.00
2017-11-18T10:52:20.577Z,6.28
2017-11-18T10:54:48.937Z,5.93
2017-11-18T10:57:17.283Z,6.47
2017-11-18T10:59:45.669Z,6.18
2017-11-18T11:02:14.017Z,6.65
2017-11-18T11:04:42.372Z,6.90
2017-11-18T11:07:10.724Z,5.50
2017-11-18T11:09:39.075Z,6.03
2017-11-18T11:12:07.473Z,6.95
2017-11-18T11:14:35.816Z,6.60
2017-11-18T11:17:04.200Z,6.75
2017-11-18T11:19:32.558Z,5.97
2017-11-18T11:22:00.910Z,7.70
2017-11-18T11:24:29.257Z,7.47
2017-11-18T11:26:57.608Z,7.12
2017-11-18T11:29:26.073Z,7.05
2017-11-18T11:31:54.442Z,7.90
2017-11-18T11:34:22.792Z,6.97
2017-11-18T11:36:51.156Z,6.12
2017-11-18T11:39:19.539Z,7.05
2017-11-18T11:41:47.922Z,7.72
2017-11-18T11:44:16.285Z,9.25
2017-11-18T11:46:44.637Z,10.25
2017-11-18T11:49:12.996Z,7.93
2017-11-18T11:51:41.617Z,8.98
2017-11-18T11:54:10.214Z,9.82
2017-11-18T11:56:38.645Z,9.60
2017-11-18T11:59:07.174Z,10.07
2017-11-18T12:01:35.653Z,8.70
2017-11-18T12:04:04.107Z,9.05
2017-11-18T12:06:32.490Z,10.00
2017-11-18T12:09:00.884Z,9.15
2017-11-18T12:11:29.460Z,10.90
2017-11-18T12:13:57.861Z,9.20
2017-11-18T12:16:26.402Z,8.85
2017-11-18T12:18:54.755Z,11.48
2017-11-18T12:21:23.244Z,10.30
2017-11-18T12:23:52.968Z,9.55
2017-11-18T12:26:21.336Z,9.05
2017-11-18T12:28:49.689Z,8.20
2017-11-18T12:31:18.049Z,9.15
2017-11-18T12:33:46.398Z,8.45
2017-11-18T12:36:14.881Z,9.20
2017-11-18T12:38:43.236Z,9.52
2017-11-18T12:41:11.589Z,9.38
2017-11-18T12:43:39.953Z,9.25
2017-11-18T12:46:08.315Z,9.98
2017-11-18T12:48:36.689Z,8.77
2017-11-18T12:51:05.040Z,8.95
2017-11-18T12:53:33.401Z,9.70
2017-11-18T12:56:01.751Z,8.73
2017-11-18T12:58:30.094Z,9.00
2017-11-18T13:00:58.472Z,9.00
2017-11-18T13:03:26.831Z,8.40
2017-11-18T13:05:55.214Z,9.90
2017-11-18T13:08:23.572Z,8.00
2017-11-18T13:10:51.912Z,8.45
2017-11-18T13:13:20.261Z,7.90
2017-11-18T13:15:48.623Z,9.10
2017-11-18T13:18:16.996Z,9.13
2017-11-18T13:20:45.348Z,8.70
2017-11-18T13:23:13.700Z,8.60
2017-11-18T13:25:42.050Z,7.82
2017-11-18T13:28:10.408Z,9.15
2017-11-18T13:30:38.795Z,9.15
2017-11-18T13:33:07.154Z,8.40
2017-11-18T13:35:35.500Z,7.55
2017-11-18T13:38:03.856Z,9.75
2017-11-18T13:40:32.217Z,9.10
2017-11-18T13:43:00.684Z,8.93
2017-11-18T13:45:29.060Z,10.00
2017-11-18T13:47:57.459Z,8.93
2017-11-18T13:50:25.820Z,11.25
2017-11-18T13:52:54.184Z,9.25
2017-11-18T13:55:22.541Z,10.50
2017-11-18T13:57:50.917Z,9.45
2017-11-18T14:00:19.317Z,9.77
2017-11-18T14:02:47.690Z,9.93
2017-11-18T14:05:16.045Z,9.65
2017-11-18T14:07:44.416Z,10.52
2017-11-18T14:10:12.772Z,9.70
2017-11-18T14:12:41.170Z,9.18
2017-11-18T14:15:09.525Z,8.67
2017-11-18T14:17:37.864Z,8.70
2017-11-18T14:20:06.248Z,9.73
2017-11-18T14:22:34.617Z,9.18
2017-11-18T14:25:02.987Z,10.10
2017-11-18T14:27:31.349Z,9.27
2017-11-18T14:30:00.641Z,9.38
2017-11-18T14:32:29.051Z,9.25
2017-11-18T14:34:57.416Z,11.80
2017-11-18T14:37:25.773Z,10.15
2017-11-18T14:39:54.144Z,10.30
2017-11-18T14:42:22.773Z,10.32
2017-11-18T14:44:51.404Z,9.98
2017-11-18T14:47:19.851Z,11.05
2017-11-18T14:49:48.212Z,9.85
2017-11-18T14:52:16.587Z,11.73
2017-11-18T14:54:44.952Z,10.80
2017-11-18T14:57:13.341Z,10.25
2017-11-18T14:59:41.766Z,11.65
2017-11-18T15:02:10.138Z,12.23
2017-11-18T15:04:38.507Z,12.27
2017-11-18T15:07:06.869Z,11.10
2017-11-18T15:09:35.243Z,13.15
2017-11-18T15:12:03.635Z,12.23
2017-11-18T15:14:47.803Z,12.48
2017-11-18T15:17:21.784Z,13.57
2017-11-18T15:20:00.736Z,14.60
2017-11-18T15:22:30.045Z,11.75
2017-11-18T15:25:04.056Z,12.85
2017-11-18T15:27:38.608Z,12.80
2017-11-18T15:30:09.465Z,13.90
2017-11-18T15:32:38.618Z,13.10
2017-11-18T15:35:13.624Z,12.15
2017-11-18T15:37:47.449Z,13.32
2017-11-18T15:40:15.857Z,11.75
2017-11-18T15:42:44.234Z,13.30
2017-11-18T15:45:14.032Z,11.20
2017-11-18T15:47:44.785Z,11.88
2017-11-18T15:53:37.035Z,12.50
2017-11-18T15:56:11.062Z,15.45
2017-11-18T15:58:40.141Z,14.90
2017-11-18T16:01:14.331Z,14.98
2017-11-18T16:03:43.956Z,12.60
2017-11-18T16:06:12.308Z,14.15
2017-11-18T16:08:40.675Z,16.12
2017-11-18T16:11:09.036Z,16.65
2017-11-18T16:13:37.420Z,20.55
2017-11-18T16:16:05.807Z,23.38
2017-11-18T16:18:34.177Z,16.00
2017-11-18T16:21:02.546Z,16.17
2017-11-18T16:23:30.920Z,16.83
2017-11-18T16:25:59.321Z,17.85
2017-11-18T16:28:27.736Z,16.00
2017-11-18T16:30:56.088Z,18.95
2017-11-18T16:33:24.445Z,15.32
2017-11-18T16:35:52.804Z,17.92
2017-11-18T16:38:21.176Z,15.95
2017-11-18T16:40:49.589Z,16.83
2017-11-18T16:43:17.997Z,16.10
2017-11-18T16:45:46.362Z,17.50
2017-11-18T16:48:14.899Z,16.02
2017-11-18T16:50:43.250Z,18.27
2017-11-18T16:53:11.640Z,14.65
2017-11-18T16:55:39.994Z,16.08
2017-11-18T16:58:08.356Z,24.12
2017-11-18T17:00:36.719Z,14.20
2017-11-18T17:03:05.086Z,14.80
2017-11-18T17:05:33.437Z,25.77
2017-11-18T17:08:01.803Z,16.67
2017-11-18T17:10:30.217Z,14.10
2017-11-18T17:12:58.575Z,16.02
2017-11-18T17:15:26.939Z,13.50
2017-11-18T17:17:55.295Z,12.40
2017-11-18T17:20:23.653Z,12.95
2017-11-18T17:22:52.051Z,11.63
2017-11-18T17:25:20.425Z,11.50
2017-11-18T17:27:48.791Z,9.55
2017-11-18T17:30:17.133Z,6.12
2017-11-18T17:32:45.548Z,6.53
2017-11-18T17:35:14.013Z,6.10
2017-11-18T17:37:42.387Z,6.57
2017-11-18T17:40:10.741Z,4.95
2017-11-18T17:42:39.097Z,5.03
2017-11-18T17:45:07.427Z,3.10
2017-11-18T17:47:35.805Z,2.40
2017-11-18T17:50:04.151Z,2.55
2017-11-18T17:52:32.492Z,2.50
2017-11-18T17:55:00.843Z,2.30
2017-11-18T17:57:29.235Z,1.80
2017-11-18T17:59:57.624Z,2.10
2017-11-18T18:02:25.989Z,2.12
2017-11-18T18:04:54.323Z,2.70
2017-11-18T18:07:22.664Z,4.60
2017-11-18T18:09:51.149Z,2.78
2017-11-18T18:12:19.506Z,3.20
2017-11-18T18:14:47.846Z,2.60
2017-11-18T18:17:16.201Z,2.60
2017-11-18T18:19:44.544Z,2.33
2017-11-18T18:22:12.938Z,2.90
2017-11-18T18:24:41.276Z,2.97
2017-11-18T18:27:09.635Z,2.33
2017-11-18T18:29:37.985Z,2.97
2017-11-18T18:32:06.344Z,2.80
2017-11-18T18:34:34.729Z,2.28
2017-11-18T18:37:03.076Z,3.40
2017-11-18T18:39:31.426Z,3.60
2017-11-18T18:41:59.830Z,2.80
2017-11-18T18:44:28.178Z,2.65
2017-11-18T18:46:56.573Z,3.17
2017-11-18T18:49:24.917Z,3.58
2017-11-18T18:51:53.257Z,7.72
2017-11-18T18:54:21.615Z,5.32
2017-11-18T18:56:49.964Z,3.55
2017-11-18T18:59:18.373Z,1.85
2017-11-18T19:01:46.716Z,1.70
2017-11-18T19:04:15.085Z,1.80
2017-11-18T19:06:43.435Z,1.60
2017-11-18T19:09:11.780Z,3.20
2017-11-18T19:11:40.160Z,2.05
2017-11-18T19:14:08.512Z,5.15
2017-11-18T19:16:36.858Z,1.50
2017-11-18T19:19:05.197Z,2.50
2017-11-18T19:21:33.551Z,0.43
2017-11-18T19:24:01.933Z,1.00
2017-11-18T19:26:30.280Z,3.90
2017-11-18T19:28:58.625Z,2.90
2017-11-18T19:31:26.964Z,5.28
2017-11-18T19:33:55.307Z,2.60
2017-11-18T19:36:23.715Z,2.53
2017-11-18T19:38:52.064Z,2.87
2017-11-18T19:41:20.407Z,2.15
2017-11-18T19:43:48.779Z,1.90
2017-11-18T19:46:17.113Z,2.20
2017-11-18T19:48:45.460Z,3.17
2017-11-18T19:51:13.822Z,2.00
2017-11-18T19:53:42.284Z,3.30
2017-11-18T19:56:10.626Z,4.00
2017-11-18T19:58:38.981Z,2.50
2017-11-18T20:01:07.342Z,2.60
2017-11-18T20:03:35.946Z,1.60
2017-11-18T20:06:04.584Z,5.70
2017-11-18T20:08:33.032Z,4.20
2017-11-18T20:11:01.635Z,5.10
2017-11-18T20:13:30.228Z,7.55
2017-11-18T20:15:58.661Z,2.87
2017-11-18T20:18:27.033Z,6.47
2017-11-18T20:20:55.384Z,8.02
2017-11-18T20:23:23.744Z,3.55
2017-11-18T20:25:52.099Z,6.00
2017-11-18T20:28:20.459Z,5.50
2017-11-18T20:30:48.884Z,3.85
2017-11-18T20:33:17.238Z,3.35
2017-11-18T20:35:45.591Z,3.90
2017-11-18T20:38:13.932Z,4.55
2017-11-18T20:40:42.286Z,3.28
2017-11-18T20:43:10.697Z,2.45
2017-11-18T20:45:39.051Z,1.75
2017-11-18T20:48:07.393Z,1.73
2017-11-18T20:50:35.741Z,2.35
2017-11-18T20:53:04.084Z,4.32
2017-11-18T20:55:32.469Z,2.87
2017-11-18T20:58:00.812Z,1.75
2017-11-18T21:00:29.177Z,2.47
2017-11-18T21:02:57.549Z,7.78
2017-11-18T21:05:25.927Z,12.70
2017-11-18T21:07:54.284Z,14.50
2017-11-18T21:10:22.631Z,4.50
2017-11-18T21:12:51.008Z,3.20
2017-11-18T21:15:19.355Z,2.50
2017-11-18T21:17:47.732Z,1.92
2017-11-18T21:20:16.075Z,2.22
2017-11-18T21:22:44.428Z,2.85
2017-11-18T21:25:12.792Z,2.95
2017-11-18T21:27:41.169Z,8.05
2017-11-18T21:30:09.766Z,4.00
2017-11-18T21:32:38.117Z,5.85
2017-11-18T21:35:06.462Z,5.45
2017-11-18T21:37:34.814Z,3.17
2017-11-18T21:40:03.169Z,4.30
2017-11-18T21:42:31.548Z,3.10
2017-11-18T21:44:59.914Z,3.40
2017-11-18T21:47:28.274Z,4.18
2017-11-18T21:49:56.624Z,3.58
2017-11-18T21:52:24.979Z,3.78
2017-11-18T21:54:53.328Z,5.40
2017-11-18T21:57:21.676Z,6.62
2017-11-18T21:59:50.127Z,10.07
2017-11-18T22:02:18.458Z,5.40
2017-11-18T22:04:46.805Z,5.25
2017-11-18T22:07:15.157Z,6.30
2017-11-18T22:09:43.573Z,4.00
2017-11-18T22:12:12.145Z,7.18
2017-11-18T22:14:41.686Z,3.35
2017-11-18T22:17:10.121Z,3.10
2017-11-18T22:19:38.642Z,2.83
2017-11-18T22:22:07.227Z,3.15
2017-11-18T22:24:35.568Z,3.08
2017-11-18T22:27:03.920Z,3.12
2017-11-18T22:29:32.262Z,3.00
2017-11-18T22:32:00.615Z,3.97
2017-11-18T22:34:29.012Z,3.15
2017-11-18T22:36:57.356Z,2.70
2017-11-18T22:39:25.703Z,4.22
2017-11-18T22:41:54.052Z,5.07
2017-11-18T22:44:22.413Z,13.00
2017-11-18T22:46:50.766Z,14.00
2017-11-18T22:49:19.153Z,5.70
2017-11-18T22:51:47.501Z,3.62
2017-11-18T22:54:15.866Z,4.80
2017-11-18T22:56:44.207Z,3.20
2017-11-18T22:59:12.569Z,4.55
2017-11-18T23:01:40.936Z,4.43
2017-11-18T23:04:09.308Z,6.30
2017-11-18T23:06:37.658Z,5.30
2017-11-18T23:09:05.996Z,6.35
2017-11-18T23:11:34.345Z,9.40
2017-11-18T23:14:02.727Z,8.30
2017-11-18T23:16:31.084Z,8.55
2017-11-18T23:18:59.435Z,4.20
2017-11-18T23:21:27.784Z,4.80
2017-11-18T23:23:56.127Z,4.50
2017-11-18T23:26:24.472Z,4.75
2017-11-18T23:28:52.816Z,5.20
2017-11-18T23:31:21.193Z,4.95
2017-11-18T23:33:49.545Z,5.03
2017-11-18T23:36:17.887Z,5.12
2017-11-18T23:38:46.248Z,7.00
2017-11-18T23:41:14.623Z,5.65
2017-11-18T23:43:43.010Z,5.47
2017-11-18T23:46:11.361Z,5.72
2017-11-18T23:48:39.709Z,5.40
2017-11-18T23:51:08.064Z,5.53
2017-11-18T23:53:36.425Z,4.72
2017-11-18T23:56:04.779Z,4.78
2017-11-18T23:58:33.118Z,4.75
